Terminal Aerodrome Forecast
Issued by NWS Omaha/Valley, NE

Home | Current Version | Previous Version | Graphics & Text | Print | Product List | Glossary On
Versions: 1 2 3 4 5 6 7 8 9 10 11 12 13 14 15 16 17 18 19 20
000
FTUS43 KOAX 191516 AAB
TAFOFK
TAF AMD
KOFK 191516Z 1915/2012 36013G21KT P6SM -SHRA OVC010
     FM191700 01015KT P6SM VCSH OVC015
     FM192100 01015G20KT P6SM OVC015
     FM200000 01011KT P6SM OVC008=

USA.gov is the U.S. government's official web portal to all federal, state and local government web resources and services.